KOVE/OVE METAR and TAF weather

Enter ICAO airport designator
Station Type Date Time Source
KOVE METAR 2023/01/29 18:19 UTC NOAA

KOVE 291819Z AUTO 08011KT -RA FEW025 OVC032 07/04 A2989 RMK AO2 P0005 T00720039 $


Station Type Date Time Source
KOVE Decoded METAR 2023/01/29 18:19 UTC NOAA

OROVILLE MUNICIPAL AIRPORT, CA, United States (KOVE) 39-30N 121-37W 58M
Jan 29, 2023 - 01:19 PM EST / 2023.01.29 1819 UTC
Wind: from the E (080 degrees) at 13 MPH (11 KT):0
Sky conditions: overcast
Weather: light rain
Precipitation last hour: 0.05 inches
Temperature: 45.0 F (7.2 C)
Dew Point: 39.0 F (3.9 C)
Relative Humidity: 79%
Pressure (altimeter): 29.89 in. Hg (1012 hPa)
ob: KOVE 291819Z AUTO 08011KT -RA FEW025 OVC032 07/04 A2989 RMK AO2 P0005 T00720039
cycle: 18

Station Type Date Time Source
KOVE TAF UTC NOAA

Error!

Example: see airport list